CheckWX is a tool to help pilots better visualize weather data.  It is not intended as a substitute for an official pre-flight weather briefing.

05:22:47 UTC

EIME TAF
Casement Air Base Airport
Baldonnel, Ireland
TAF EIME 160200Z 1603/1612 17008KT 9999 FEW030 BECMG 1603/1605 21008KT

Jun-16@
03:00 UTC

Jun-16 @ 03:00 UTC

Jun-16@
12:00 UTC

Jun-16 @ 12:00 UTC

TAF EIME 160200Z 1603/1612 17008KT 9999 FEW030
Wind
  • 170° at 8 KTS
Cloud Levels
  • Few at 3,000' AGL

Jun-16@
03:00 UTC

Jun-16 @ 03:00 UTC

Jun-16@
12:00 UTC

Jun-16 @ 12:00 UTC

BECMG 1603/1605 21008KT

Becoming

Becoming Conditions expected by Sun, Jun 16, 2019 @ 05:00 UTC

Wind
  • 210° at 8 KTS
Cloud Levels
  • Few at 3,000' AGL